Time;durP1;ratioP1;P1;durP2;ratioP2;P2;SDS_P1;SDS_P2;PMS_P1;PMS_P2;Temp;Humidity;BMP_temperature;BMP_pressure;BME280_temperature;BME280_humidity;BME280_pressure;Samples;Min_cycle;Max_cycle;Signal;HPM_P1;HPM_P2
2023/09/01 00:02:18;;;;;;;4.40;2.03;;;;;;;;;;5072156;28;20036;-86
2023/09/01 00:04:44;;;;;;;6.07;2.20;;;;;;;;;;5073866;28;20038;-86
2023/09/01 00:07:09;;;;;;;7.43;2.33;;;;;;;;;;5074570;28;20042;-86
2023/09/01 00:09:37;;;;;;;8.10;2.03;;;;;;;;;;5073467;28;20028;-87
2023/09/01 00:12:02;;;;;;;5.57;2.60;;;;;;;;;;5074192;28;20019;-86
2023/09/01 00:14:27;;;;;;;4.47;2.22;;;;;;;;;;5065243;28;20020;-86
2023/09/01 00:16:55;;;;;;;6.40;2.13;;;;;;;;;;5073660;28;20021;-83
2023/09/01 00:19:22;;;;;;;10.13;2.17;;;;;;;;;;5070411;28;20013;-86
2023/09/01 00:21:48;;;;;;;6.40;1.98;;;;;;;;;;5062535;28;20044;-86
2023/09/01 00:24:14;;;;;;;7.75;2.45;;;;;;;;;;5062525;28;20083;-86
2023/09/01 00:26:39;;;;;;;10.98;2.33;;;;;;;;;;5072416;28;20033;-86
2023/09/01 00:29:04;;;;;;;7.78;2.58;;;;;;;;;;5057706;28;20376;-86
2023/09/01 00:31:29;;;;;;;6.85;2.63;;;;;;;;;;5070465;28;20077;-87
2023/09/01 00:33:55;;;;;;;6.65;2.13;;;;;;;;;;5072298;28;20024;-87
2023/09/01 00:36:20;;;;;;;6.75;2.33;;;;;;;;;;5071862;28;20024;-86
2023/09/01 00:38:45;;;;;;;4.03;1.90;;;;;;;;;;5070983;28;20463;-86
2023/09/01 00:41:10;;;;;;;7.47;2.72;;;;;;;;;;5071810;28;20028;-86
2023/09/01 00:43:36;;;;;;;6.80;2.45;;;;;;;;;;5071967;28;20476;-86
2023/09/01 00:46:01;;;;;;;3.42;1.85;;;;;;;;;;5071987;28;20361;-86
2023/09/01 00:48:26;;;;;;;5.85;2.10;;;;;;;;;;5070551;28;20017;-85
2023/09/01 00:50:52;;;;;;;4.78;2.15;;;;;;;;;;5070850;28;20044;-86
2023/09/01 00:53:18;;;;;;;7.47;2.50;;;;;;;;;;5074132;28;20077;-86
2023/09/01 00:55:43;;;;;;;5.35;2.20;;;;;;;;;;5075215;28;20024;-86
2023/09/01 00:58:09;;;;;;;5.35;2.47;;;;;;;;;;5070478;28;20075;-86
2023/09/01 01:00:34;;;;;;;7.38;2.53;;;;;;;;;;5072670;28;20475;-86
2023/09/01 01:03:06;;;;;;;4.53;2.05;;;;;;;;;;5073913;28;20372;-86
2023/09/01 01:05:31;;;;;;;;;;;;;;;;;;5074059;28;20169;-87
2023/09/01 01:08:12;;;;;;;6.20;2.45;;;;;;;;;;5075072;28;19938;-86
2023/09/01 01:11:01;;;;;;;6.53;2.10;;;;;;;;;;5074503;28;20277;-86
2023/09/01 01:13:30;;;;;;;5.18;2.30;;;;;;;;;;5075452;28;20066;-86
2023/09/01 01:15:55;;;;;;;7.68;2.33;;;;;;;;;;5075449;28;20013;-86
2023/09/01 01:18:22;;;;;;;3.05;1.98;;;;;;;;;;5074809;28;20711;-86
2023/09/01 01:20:51;;;;;;;8.52;2.42;;;;;;;;;;5075052;28;20053;-87
2023/09/01 01:23:17;;;;;;;5.28;2.08;;;;;;;;;;5073545;28;20027;-86
2023/09/01 01:25:50;;;;;;;8.48;2.90;;;;;;;;;;5064907;28;20021;-87
2023/09/01 01:28:15;;;;;;;4.68;2.72;;;;;;;;;;5075708;28;20024;-85
2023/09/01 01:30:41;;;;;;;7.60;2.10;;;;;;;;;;5076354;28;20017;-86
2023/09/01 01:33:12;;;;;;;6.60;2.72;;;;;;;;;;5065638;28;20036;-86
2023/09/01 01:35:44;;;;;;;3.42;1.90;;;;;;;;;;5060365;28;20063;-86
2023/09/01 01:38:12;;;;;;;9.38;2.17;;;;;;;;;;5075900;28;20525;-87
2023/09/01 01:40:38;;;;;;;5.97;1.80;;;;;;;;;;5074475;28;20111;-86
2023/09/01 01:43:04;;;;;;;8.02;2.45;;;;;;;;;;5074371;28;20094;-86
2023/09/01 01:45:30;;;;;;;6.03;2.38;;;;;;;;;;5074488;28;20169;-87
2023/09/01 01:47:55;;;;;;;5.25;2.33;;;;;;;;;;5074090;28;20425;-86
2023/09/01 01:50:21;;;;;;;3.65;2.00;;;;;;;;;;5074321;28;20020;-86
2023/09/01 01:52:46;;;;;;;3.25;1.80;;;;;;;;;;5074782;28;20773;-87
2023/09/01 01:55:11;;;;;;;5.78;2.00;;;;;;;;;;5073431;28;20040;-86
2023/09/01 01:57:37;;;;;;;3.42;1.90;;;;;;;;;;5074120;28;20372;-87
2023/09/01 02:00:14;;;;;;;4.30;1.85;;;;;;;;;;5072852;28;20028;-87
2023/09/01 02:02:40;;;;;;;4.25;2.25;;;;;;;;;;5074378;28;20153;-87
2023/09/01 02:05:06;;;;;;;8.48;2.58;;;;;;;;;;5074204;28;20126;-86
2023/09/01 02:07:34;;;;;;;7.35;2.30;;;;;;;;;;5073795;28;20498;-87
2023/09/01 02:10:00;;;;;;;5.05;2.38;;;;;;;;;;5072470;28;20036;-86
2023/09/01 02:12:25;;;;;;;5.28;2.30;;;;;;;;;;5073712;28;20475;-86
2023/09/01 02:14:50;;;;;;;5.05;2.25;;;;;;;;;;5075133;28;20016;-86
2023/09/01 02:17:16;;;;;;;5.70;2.28;;;;;;;;;;5073754;28;20081;-86
2023/09/01 02:19:41;;;;;;;5.93;2.78;;;;;;;;;;5074125;28;20032;-87
2023/09/01 02:22:06;;;;;;;5.97;2.45;;;;;;;;;;5073398;28;20372;-87
2023/09/01 02:24:32;;;;;;;6.38;2.47;;;;;;;;;;5073119;28;20012;-87
2023/09/01 02:26:58;;;;;;;3.47;1.95;;;;;;;;;;5073759;28;20155;-87
2023/09/01 02:29:23;;;;;;;8.07;2.30;;;;;;;;;;5074183;28;20017;-87
2023/09/01 02:31:48;;;;;;;6.88;2.33;;;;;;;;;;5073126;28;20103;-86
2023/09/01 02:34:14;;;;;;;6.57;2.63;;;;;;;;;;5073842;28;20020;-86
2023/09/01 02:36:39;;;;;;;5.40;2.40;;;;;;;;;;5073661;28;20078;-87
2023/09/01 02:39:04;;;;;;;5.45;2.72;;;;;;;;;;5074574;28;20039;-87
2023/09/01 02:41:30;;;;;;;4.15;2.55;;;;;;;;;;5071941;28;20025;-87
2023/09/01 02:43:55;;;;;;;4.63;2.22;;;;;;;;;;5072980;28;20024;-87
2023/09/01 02:46:20;;;;;;;8.00;2.83;;;;;;;;;;5072859;28;20021;-86
2023/09/01 02:48:46;;;;;;;7.13;2.30;;;;;;;;;;5073066;28;20381;-86
2023/09/01 02:51:11;;;;;;;5.45;2.38;;;;;;;;;;5071860;28;20027;-87
2023/09/01 02:53:37;;;;;;;11.43;2.42;;;;;;;;;;5072915;28;20021;-87
2023/09/01 02:56:02;;;;;;;7.25;2.70;;;;;;;;;;5073642;28;20420;-87
2023/09/01 02:58:28;;;;;;;7.85;2.92;;;;;;;;;;5074833;28;20009;-87
2023/09/01 03:00:54;;;;;;;4.47;2.65;;;;;;;;;;5073040;28;20028;-87
2023/09/01 03:03:19;;;;;;;6.07;3.05;;;;;;;;;;5064207;28;20045;-88
2023/09/01 03:05:46;;;;;;;5.70;2.70;;;;;;;;;;5067056;28;20468;-87
2023/09/01 03:08:13;;;;;;;10.45;2.78;;;;;;;;;;5072892;28;20126;-87
2023/09/01 03:10:39;;;;;;;11.15;3.35;;;;;;;;;;5073994;28;20032;-86
2023/09/01 03:13:04;;;;;;;5.38;2.90;;;;;;;;;;5071679;28;20024;-87
2023/09/01 03:15:30;;;;;;;5.32;2.60;;;;;;;;;;5072044;28;20029;-86
2023/09/01 03:17:55;;;;;;;7.32;3.03;;;;;;;;;;5072672;28;20028;-87
2023/09/01 03:20:20;;;;;;;8.25;2.75;;;;;;;;;;5072879;28;20028;-86
2023/09/01 03:22:46;;;;;;;5.57;2.60;;;;;;;;;;5072435;28;20143;-87
2023/09/01 03:25:11;;;;;;;9.27;3.40;;;;;;;;;;5072544;28;20054;-86
2023/09/01 03:27:39;;;;;;;5.72;2.88;;;;;;;;;;5072381;28;20032;-87
2023/09/01 03:30:05;;;;;;;8.35;3.67;;;;;;;;;;5072175;28;20352;-87
2023/09/01 03:32:30;;;;;;;7.85;3.38;;;;;;;;;;5071171;28;20114;-87
2023/09/01 03:34:56;;;;;;;7.70;2.85;;;;;;;;;;5073253;28;20028;-87
2023/09/01 03:37:22;;;;;;;6.57;3.20;;;;;;;;;;5071850;28;20016;-86
2023/09/01 03:39:47;;;;;;;8.93;3.50;;;;;;;;;;5072175;28;20103;-86
2023/09/01 03:42:16;;;;;;;8.93;3.35;;;;;;;;;;5071123;28;20051;-87
2023/09/01 03:44:41;;;;;;;5.22;2.78;;;;;;;;;;5055963;28;20025;-86
2023/09/01 03:47:07;;;;;;;5.90;2.67;;;;;;;;;;5064521;28;20071;-87
2023/09/01 03:49:32;;;;;;;3.67;2.22;;;;;;;;;;5072548;28;20021;-87
2023/09/01 03:51:58;;;;;;;4.57;2.47;;;;;;;;;;5072112;28;20088;-87
2023/09/01 03:54:23;;;;;;;7.60;2.95;;;;;;;;;;5058511;28;20028;-85
2023/09/01 03:56:49;;;;;;;7.18;2.70;;;;;;;;;;5074123;28;20435;-87
2023/09/01 03:59:14;;;;;;;8.65;3.35;;;;;;;;;;5073444;28;20057;-85
2023/09/01 04:01:39;;;;;;;9.70;2.67;;;;;;;;;;5074574;28;20058;-86
2023/09/01 04:04:06;;;;;;;7.78;2.97;;;;;;;;;;5072630;28;20028;-86
2023/09/01 04:06:31;;;;;;;6.80;2.60;;;;;;;;;;5075046;28;20031;-86
2023/09/01 04:08:57;;;;;;;7.90;3.03;;;;;;;;;;5056209;28;20088;-87
2023/09/01 04:11:22;;;;;;;6.22;2.65;;;;;;;;;;5071760;28;20464;-87
2023/09/01 04:13:47;;;;;;;7.50;2.60;;;;;;;;;;5064873;28;20025;-87
2023/09/01 04:16:13;;;;;;;8.10;2.70;;;;;;;;;;5072494;28;20031;-87
2023/09/01 04:18:38;;;;;;;7.53;2.53;;;;;;;;;;5072236;28;20032;-86
2023/09/01 04:21:03;;;;;;;7.65;2.60;;;;;;;;;;5072795;28;20027;-87
2023/09/01 04:23:29;;;;;;;5.25;2.75;;;;;;;;;;5072016;28;20111;-87
2023/09/01 04:25:54;;;;;;;7.95;2.88;;;;;;;;;;5072252;28;20510;-86
2023/09/01 04:28:19;;;;;;;4.43;2.22;;;;;;;;;;5075569;28;20433;-86
2023/09/01 04:30:45;;;;;;;5.35;2.50;;;;;;;;;;5076009;28;20027;-86
2023/09/01 04:33:12;;;;;;;4.88;2.30;;;;;;;;;;5075921;28;20039;-87
2023/09/01 04:35:37;;;;;;;6.90;2.75;;;;;;;;;;5075080;28;20091;-87
2023/09/01 04:38:03;;;;;;;10.45;2.78;;;;;;;;;;5075109;28;20020;-87
2023/09/01 04:40:28;;;;;;;9.73;2.70;;;;;;;;;;5075942;28;20119;-87
2023/09/01 04:42:54;;;;;;;4.75;2.47;;;;;;;;;;5075975;28;20468;-87
2023/09/01 04:45:19;;;;;;;6.70;3.05;;;;;;;;;;5075711;28;20023;-87
2023/09/01 04:47:44;;;;;;;5.72;2.60;;;;;;;;;;5074888;28;20031;-87
2023/09/01 04:50:10;;;;;;;5.20;2.45;;;;;;;;;;5075888;28;20413;-86
2023/09/01 04:52:35;;;;;;;6.75;2.42;;;;;;;;;;5075609;28;20009;-87
2023/09/01 04:55:05;;;;;;;6.65;2.83;;;;;;;;;;5075721;28;20016;-86
2023/09/01 04:57:31;;;;;;;6.10;2.38;;;;;;;;;;5073915;28;20013;-87
2023/09/01 04:59:56;;;;;;;4.63;2.75;;;;;;;;;;5076125;28;20123;-87
2023/09/01 05:02:21;;;;;;;7.10;2.85;;;;;;;;;;5072826;28;20024;-86
2023/09/01 05:04:47;;;;;;;6.60;3.22;;;;;;;;;;5068502;28;20016;-86
2023/09/01 05:07:12;;;;;;;5.72;2.75;;;;;;;;;;5074472;28;20055;-85
2023/09/01 05:09:37;;;;;;;6.20;2.70;;;;;;;;;;5076029;28;20028;-85
2023/09/01 05:12:03;;;;;;;8.43;2.70;;;;;;;;;;5074105;28;20013;-86
2023/09/01 05:14:28;;;;;;;7.30;2.80;;;;;;;;;;5074528;28;20546;-87
2023/09/01 05:16:56;;;;;;;5.93;3.00;;;;;;;;;;5075030;28;20028;-87
2023/09/01 05:19:21;;;;;;;8.73;2.90;;;;;;;;;;5061226;28;20024;-87
2023/09/01 05:21:48;;;;;;;6.10;3.40;;;;;;;;;;5075398;28;20021;-87
2023/09/01 05:24:13;;;;;;;8.55;3.47;;;;;;;;;;5075182;28;20016;-87
2023/09/01 05:26:38;;;;;;;6.32;3.10;;;;;;;;;;5075504;28;20467;-86
2023/09/01 05:29:04;;;;;;;6.90;3.30;;;;;;;;;;5074581;28;20020;-86
2023/09/01 05:31:29;;;;;;;8.35;3.10;;;;;;;;;;5074430;28;20055;-86
2023/09/01 05:33:57;;;;;;;5.75;2.95;;;;;;;;;;5073473;28;20122;-85
2023/09/01 05:36:22;;;;;;;5.85;3.28;;;;;;;;;;5074709;28;20116;-86
2023/09/01 05:38:48;;;;;;;9.55;3.33;;;;;;;;;;5072845;28;20020;-87
2023/09/01 05:41:14;;;;;;;8.77;3.30;;;;;;;;;;5074592;28;20024;-86
2023/09/01 05:43:39;;;;;;;6.55;3.63;;;;;;;;;;5062967;28;20028;-86
2023/09/01 05:46:04;;;;;;;11.18;3.28;;;;;;;;;;5070227;28;20107;-87
2023/09/01 05:48:30;;;;;;;5.93;2.92;;;;;;;;;;5070637;28;20024;-86
2023/09/01 05:50:55;;;;;;;11.63;3.45;;;;;;;;;;5073747;28;20021;-87
2023/09/01 05:53:21;;;;;;;7.32;3.13;;;;;;;;;;5072572;28;20027;-86
2023/09/01 05:55:46;;;;;;;16.17;3.10;;;;;;;;;;5071629;28;20467;-86
2023/09/01 05:58:12;;;;;;;5.63;3.47;;;;;;;;;;5060812;28;20024;-87
2023/09/01 06:00:37;;;;;;;6.82;3.15;;;;;;;;;;5072122;28;20472;-87
2023/09/01 06:03:03;;;;;;;10.43;3.50;;;;;;;;;;5072705;28;20111;-87
2023/09/01 06:05:29;;;;;;;7.28;3.35;;;;;;;;;;5073428;28;20046;-87
2023/09/01 06:07:54;;;;;;;5.15;3.08;;;;;;;;;;5066145;28;20531;-87
2023/09/01 06:10:19;;;;;;;7.22;3.17;;;;;;;;;;5068740;28;20500;-89
2023/09/01 06:12:45;;;;;;;6.82;3.20;;;;;;;;;;5073258;28;20016;-87
2023/09/01 06:15:10;;;;;;;9.00;3.33;;;;;;;;;;5068688;28;20077;-87
2023/09/01 06:17:37;;;;;;;5.95;3.42;;;;;;;;;;5072204;28;20112;-87
2023/09/01 06:20:04;;;;;;;6.70;3.88;;;;;;;;;;5100816;28;20028;-86
2023/09/01 06:22:29;;;;;;;6.28;3.50;;;;;;;;;;5071065;28;20088;-87
2023/09/01 06:24:55;;;;;;;7.07;3.97;;;;;;;;;;5073354;28;20427;-87
2023/09/01 06:27:20;;;;;;;10.90;4.22;;;;;;;;;;5072894;28;20024;-86
2023/09/01 06:29:45;;;;;;;8.27;3.78;;;;;;;;;;5075568;28;20107;-86
2023/09/01 06:32:11;;;;;;;6.78;3.60;;;;;;;;;;5073188;28;20103;-86
2023/09/01 06:34:43;;;;;;;7.70;3.45;;;;;;;;;;5073301;28;20025;-86
2023/09/01 06:37:08;;;;;;;9.13;3.67;;;;;;;;;;5071179;28;20048;-86
2023/09/01 06:39:33;;;;;;;6.93;3.78;;;;;;;;;;5062782;28;20499;-86
2023/09/01 06:41:59;;;;;;;7.90;3.45;;;;;;;;;;5067586;28;20472;-86
2023/09/01 06:44:24;;;;;;;7.80;3.22;;;;;;;;;;5072211;28;20075;-85
2023/09/01 06:46:50;;;;;;;6.10;2.72;;;;;;;;;;5065228;28;20024;-86
2023/09/01 06:49:15;;;;;;;8.15;3.88;;;;;;;;;;5067041;28;20488;-86
2023/09/01 06:51:40;;;;;;;7.60;3.45;;;;;;;;;;5065386;28;20021;-86
2023/09/01 06:54:06;;;;;;;7.55;3.95;;;;;;;;;;5059028;28;20429;-86
2023/09/01 06:56:31;;;;;;;5.80;3.10;;;;;;;;;;5072762;28;20021;-87
2023/09/01 06:58:56;;;;;;;6.53;3.08;;;;;;;;;;5072659;28;20013;-87
2023/09/01 07:01:22;;;;;;;7.05;3.20;;;;;;;;;;5063418;28;20020;-87
2023/09/01 07:03:50;;;;;;;6.22;3.15;;;;;;;;;;5072197;28;20074;-87
2023/09/01 07:06:16;;;;;;;5.90;2.95;;;;;;;;;;5072639;28;20371;-86
2023/09/01 07:08:41;;;;;;;5.70;3.17;;;;;;;;;;5073322;28;20103;-87
2023/09/01 07:11:10;;;;;;;5.38;2.92;;;;;;;;;;5057597;28;20064;-87
2023/09/01 07:13:37;;;;;;;5.18;3.00;;;;;;;;;;5073422;28;20361;-87
2023/09/01 07:16:03;;;;;;;6.15;2.80;;;;;;;;;;5072358;28;20024;-87
2023/09/01 07:18:29;;;;;;;7.53;2.95;;;;;;;;;;5066374;28;20090;-87
2023/09/01 07:20:58;;;;;;;5.30;2.85;;;;;;;;;;5071665;28;20025;-87
2023/09/01 07:23:23;;;;;;;11.82;3.05;;;;;;;;;;5072655;28;20395;-87
2023/09/01 07:25:49;;;;;;;4.90;3.10;;;;;;;;;;5070958;28;20016;-87
2023/09/01 07:28:14;;;;;;;4.90;3.10;;;;;;;;;;5072384;28;20032;-87
2023/09/01 07:30:39;;;;;;;11.43;3.53;;;;;;;;;;5071999;28;20021;-87
2023/09/01 07:33:05;;;;;;;6.75;3.55;;;;;;;;;;5075535;28;20025;-88
2023/09/01 07:35:30;;;;;;;9.00;3.38;;;;;;;;;;5067880;28;20028;-88
2023/09/01 07:37:56;;;;;;;6.05;3.22;;;;;;;;;;5064464;28;20023;-87
2023/09/01 07:40:21;;;;;;;5.28;2.85;;;;;;;;;;5073808;28;20051;-87
2023/09/01 07:42:47;;;;;;;6.55;2.85;;;;;;;;;;5073370;28;20031;-87
2023/09/01 07:45:13;;;;;;;6.53;3.53;;;;;;;;;;5068370;28;20025;-87
2023/09/01 07:47:38;;;;;;;6.90;2.90;;;;;;;;;;5063374;28;20302;-88
2023/09/01 07:50:04;;;;;;;6.75;2.65;;;;;;;;;;5065676;28;20098;-87
2023/09/01 07:52:29;;;;;;;6.35;2.80;;;;;;;;;;5073207;28;20035;-88
2023/09/01 07:54:54;;;;;;;5.25;3.10;;;;;;;;;;5073206;28;20009;-88
2023/09/01 07:57:20;;;;;;;7.57;3.30;;;;;;;;;;5072266;28;20009;-87
2023/09/01 07:59:45;;;;;;;6.57;3.40;;;;;;;;;;5070861;28;20424;-87
2023/09/01 08:02:10;;;;;;;5.25;3.03;;;;;;;;;;5068863;28;20016;-87
2023/09/01 08:04:36;;;;;;;5.75;2.78;;;;;;;;;;5072984;28;20044;-88
2023/09/01 08:07:01;;;;;;;5.10;3.00;;;;;;;;;;5072162;28;20092;-88
2023/09/01 08:09:26;;;;;;;5.30;2.30;;;;;;;;;;5072860;28;20048;-88
2023/09/01 08:11:53;;;;;;;4.28;2.65;;;;;;;;;;5062566;28;20037;-89
2023/09/01 08:14:18;;;;;;;8.63;3.10;;;;;;;;;;5072071;28;20069;-89
2023/09/01 08:16:43;;;;;;;8.32;3.78;;;;;;;;;;5063402;28;20052;-88
2023/09/01 08:19:09;;;;;;;5.80;3.40;;;;;;;;;;5071708;28;20028;-89
2023/09/01 08:21:35;;;;;;;5.25;3.25;;;;;;;;;;5071858;28;20055;-88
2023/09/01 08:24:00;;;;;;;5.40;2.63;;;;;;;;;;5072164;28;20048;-89
2023/09/01 08:26:28;;;;;;;4.20;2.53;;;;;;;;;;5057639;28;20038;-89
2023/09/01 08:28:54;;;;;;;4.05;2.53;;;;;;;;;;5065283;28;20045;-88
2023/09/01 08:31:19;;;;;;;5.35;2.65;;;;;;;;;;5063314;28;20070;-89
2023/09/01 08:33:45;;;;;;;5.13;2.88;;;;;;;;;;5058276;28;20052;-89
2023/09/01 08:36:10;;;;;;;5.70;2.28;;;;;;;;;;5069836;28;20070;-88
2023/09/01 08:38:36;;;;;;;7.82;2.38;;;;;;;;;;5070653;28;20021;-90
2023/09/01 08:41:04;;;;;;;4.00;2.15;;;;;;;;;;5059703;28;20024;-89
2023/09/01 08:43:33;;;;;;;3.90;1.98;;;;;;;;;;5065439;28;20028;-90
2023/09/01 08:46:03;;;;;;;2.85;1.77;;;;;;;;;;5071443;28;20638;-87
2023/09/01 08:48:31;;;;;;;3.25;1.90;;;;;;;;;;5071747;28;20033;-87
2023/09/01 08:50:56;;;;;;;4.03;1.67;;;;;;;;;;5071080;28;20020;-87
2023/09/01 08:53:23;;;;;;;10.60;1.85;;;;;;;;;;5064856;28;20124;-87
2023/09/01 08:55:48;;;;;;;5.40;1.70;;;;;;;;;;5070102;28;20020;-87
2023/09/01 08:58:14;;;;;;;3.40;2.03;;;;;;;;;;5065705;28;20091;-86
2023/09/01 09:00:40;;;;;;;5.32;1.52;;;;;;;;;;5065131;28;20025;-87
2023/09/01 09:03:05;;;;;;;2.25;1.52;;;;;;;;;;5073659;28;20035;-87
2023/09/01 09:05:32;;;;;;;3.80;1.70;;;;;;;;;;5066589;28;20029;-87
2023/09/01 09:08:03;;;;;;;2.35;1.55;;;;;;;;;;5071007;28;20166;-87
2023/09/01 09:10:33;;;;;;;2.85;1.63;;;;;;;;;;5072579;28;20638;-87
2023/09/01 09:12:58;;;;;;;2.45;1.42;;;;;;;;;;5073169;28;20452;-87
2023/09/01 09:15:24;;;;;;;3.10;1.45;;;;;;;;;;5075494;28;20043;-86
2023/09/01 09:17:49;;;;;;;2.58;1.75;;;;;;;;;;5074821;28;20028;-87
2023/09/01 09:20:15;;;;;;;5.40;1.88;;;;;;;;;;5076090;28;20031;-87
2023/09/01 09:22:51;;;;;;;2.38;1.48;;;;;;;;;;5074897;28;20069;-87
2023/09/01 09:25:23;;;;;;;3.22;1.58;;;;;;;;;;5071060;28;20052;-87
2023/09/01 09:27:48;;;;;;;4.05;1.50;;;;;;;;;;5071837;28;20055;-87
2023/09/01 09:30:13;;;;;;;3.92;1.50;;;;;;;;;;5074984;28;20056;-87
2023/09/01 09:32:42;;;;;;;1.80;1.10;;;;;;;;;;5070371;28;20023;-86
2023/09/01 09:35:13;;;;;;;2.20;1.50;;;;;;;;;;5058846;28;20096;-87
2023/09/01 09:37:55;;;;;;;2.42;1.38;;;;;;;;;;5068214;28;20444;-87
2023/09/01 09:40:20;;;;;;;3.13;1.30;;;;;;;;;;5072506;28;20109;-87
2023/09/01 09:42:48;;;;;;;2.33;1.20;;;;;;;;;;5074889;28;20032;-86
2023/09/01 09:45:26;;;;;;;1.60;1.02;;;;;;;;;;5075019;28;20341;-87
2023/09/01 09:47:52;;;;;;;1.80;1.20;;;;;;;;;;5073396;28;20055;-87
2023/09/01 09:50:18;;;;;;;2.55;1.25;;;;;;;;;;5074447;28;20063;-87
2023/09/01 09:52:50;;;;;;;1.52;1.10;;;;;;;;;;5073411;28;20021;-88
2023/09/01 09:55:28;;;;;;;1.98;1.00;;;;;;;;;;5074236;28;20052;-87
2023/09/01 09:57:58;;;;;;;0.90;0.80;;;;;;;;;;5070418;28;20372;-87
2023/09/01 10:00:25;;;;;;;1.73;0.60;;;;;;;;;;5072196;28;20341;-87
2023/09/01 10:02:56;;;;;;;1.52;0.60;;;;;;;;;;5062300;28;20320;-86
2023/09/01 10:05:23;;;;;;;1.02;0.60;;;;;;;;;;5072140;28;20032;-86
2023/09/01 10:07:48;;;;;;;0.98;0.52;;;;;;;;;;5068468;28;20029;-86
2023/09/01 10:10:13;;;;;;;1.02;0.90;;;;;;;;;;5066172;28;20111;-86
2023/09/01 10:12:39;;;;;;;1.50;1.08;;;;;;;;;;5073267;28;20119;-86
2023/09/01 10:15:16;;;;;;;1.20;0.93;;;;;;;;;;5073307;28;20472;-86
2023/09/01 10:17:42;;;;;;;4.82;1.00;;;;;;;;;;5070531;28;20021;-86
2023/09/01 10:20:09;;;;;;;1.83;1.20;;;;;;;;;;5071704;28;20036;-86
2023/09/01 10:22:40;;;;;;;1.35;0.93;;;;;;;;;;5074959;28;20043;-86
2023/09/01 10:25:13;;;;;;;1.00;0.80;;;;;;;;;;5055829;28;20025;-86
2023/09/01 10:27:59;;;;;;;1.50;0.90;;;;;;;;;;5069480;28;20033;-86
2023/09/01 10:30:25;;;;;;;1.05;0.80;;;;;;;;;;5067122;28;20094;-86
2023/09/01 10:33:01;;;;;;;0.98;0.50;;;;;;;;;;5072141;28;20330;-86
2023/09/01 10:35:38;;;;;;;1.13;0.80;;;;;;;;;;5072008;28;20025;-86
2023/09/01 10:38:11;;;;;;;1.25;0.60;;;;;;;;;;5073647;28;20016;-86
2023/09/01 10:40:52;;;;;;;2.25;0.70;;;;;;;;;;5073756;28;20039;-86
2023/09/01 10:43:33;;;;;;;0.93;0.60;;;;;;;;;;5073586;28;20021;-86
2023/09/01 10:46:16;;;;;;;0.80;0.57;;;;;;;;;;5073157;28;20103;-86
2023/09/01 10:48:48;;;;;;;1.02;0.70;;;;;;;;;;5073603;28;20070;-86
2023/09/01 10:51:14;;;;;;;1.02;0.52;;;;;;;;;;5059813;28;20186;-86
2023/09/01 10:53:39;;;;;;;0.85;0.57;;;;;;;;;;5073187;28;20135;-86
2023/09/01 10:56:11;;;;;;;0.70;0.55;;;;;;;;;;5071811;28;20029;-86
2023/09/01 10:58:37;;;;;;;1.00;0.55;;;;;;;;;;5074450;28;20055;-86
2023/09/01 11:01:30;;;;;;;1.63;0.55;;;;;;;;;;5073484;28;20027;-86
2023/09/01 11:03:56;;;;;;;0.80;0.50;;;;;;;;;;5067624;28;20055;-86
2023/09/01 11:06:22;;;;;;;1.02;0.60;;;;;;;;;;5071361;28;20013;-86
2023/09/01 11:08:58;;;;;;;1.35;0.50;;;;;;;;;;5073377;28;20020;-86
2023/09/01 11:11:24;;;;;;;1.20;0.60;;;;;;;;;;5060786;28;20032;-86
2023/09/01 11:13:54;;;;;;;0.50;0.47;;;;;;;;;;5072228;28;20017;-86
2023/09/01 11:16:22;;;;;;;1.15;0.70;;;;;;;;;;5072190;28;20032;-86
2023/09/01 11:18:58;;;;;;;0.93;0.63;;;;;;;;;;5072456;28;20015;-86
2023/09/01 11:21:24;;;;;;;1.10;0.63;;;;;;;;;;5072986;28;20034;-86
2023/09/01 11:23:49;;;;;;;0.98;0.80;;;;;;;;;;5072525;28;20426;-87
2023/09/01 11:26:15;;;;;;;2.35;0.88;;;;;;;;;;5068637;28;20029;-87
2023/09/01 11:28:41;;;;;;;1.90;0.90;;;;;;;;;;5065829;28;20024;-87
2023/09/01 11:31:06;;;;;;;2.45;0.98;;;;;;;;;;5072554;28;20023;-86
2023/09/01 11:33:37;;;;;;;1.55;1.02;;;;;;;;;;5073447;28;20112;-86
2023/09/01 11:36:12;;;;;;;2.83;1.08;;;;;;;;;;5069755;28;20021;-85
2023/09/01 11:38:37;;;;;;;1.50;1.15;;;;;;;;;;5102098;28;20012;-86
2023/09/01 11:41:07;;;;;;;1.58;1.00;;;;;;;;;;5064434;28;20071;-86
2023/09/01 11:43:33;;;;;;;3.63;1.08;;;;;;;;;;5066696;28;20296;-86
2023/09/01 11:45:58;;;;;;;2.33;1.10;;;;;;;;;;5065229;28;20028;-86
2023/09/01 11:48:24;;;;;;;1.27;0.93;;;;;;;;;;5073032;28;20051;-86
2023/09/01 11:50:51;;;;;;;2.70;1.08;;;;;;;;;;5064814;28;20048;-86
2023/09/01 11:53:29;;;;;;;2.20;1.20;;;;;;;;;;5073182;28;20442;-86
2023/09/01 11:55:58;;;;;;;4.00;1.00;;;;;;;;;;5072707;28;20535;-86
2023/09/01 11:58:24;;;;;;;3.90;0.90;;;;;;;;;;5073177;28;20393;-86
2023/09/01 12:00:50;;;;;;;2.78;1.08;;;;;;;;;;5063325;28;20024;-86
2023/09/01 12:03:20;;;;;;;1.20;0.80;;;;;;;;;;5064721;28;20123;-86
2023/09/01 12:05:45;;;;;;;1.13;0.80;;;;;;;;;;5067487;28;20378;-86
2023/09/01 12:08:11;;;;;;;0.60;0.57;;;;;;;;;;5073016;28;20107;-86
2023/09/01 12:10:36;;;;;;;1.10;0.45;;;;;;;;;;5072877;28;20059;-87
2023/09/01 12:13:02;;;;;;;0.40;0.40;;;;;;;;;;5071976;28;20078;-86
2023/09/01 12:15:27;;;;;;;0.82;0.40;;;;;;;;;;5066760;28;20024;-87
2023/09/01 12:17:53;;;;;;;0.68;0.30;;;;;;;;;;5067769;28;20081;-86
2023/09/01 12:20:18;;;;;;;0.38;0.30;;;;;;;;;;5068443;28;20020;-86
2023/09/01 12:22:43;;;;;;;0.73;0.50;;;;;;;;;;5062492;28;20111;-86
2023/09/01 12:25:09;;;;;;;0.25;0.25;;;;;;;;;;5072388;28;20113;-87
2023/09/01 12:27:34;;;;;;;0.70;0.50;;;;;;;;;;5072465;28;20361;-87
2023/09/01 12:29:59;;;;;;;0.30;0.22;;;;;;;;;;5069177;28;20157;-86
2023/09/01 12:32:30;;;;;;;0.65;0.32;;;;;;;;;;5068632;28;20027;-86
2023/09/01 12:34:58;;;;;;;0.20;0.20;;;;;;;;;;5072922;28;20070;-86
2023/09/01 12:37:23;;;;;;;0.55;0.35;;;;;;;;;;5072154;28;20356;-86
2023/09/01 12:39:48;;;;;;;0.20;0.20;;;;;;;;;;5072294;28;20016;-86
2023/09/01 12:42:16;;;;;;;0.35;0.30;;;;;;;;;;5068738;28;20055;-86
2023/09/01 12:44:42;;;;;;;0.30;0.30;;;;;;;;;;5070846;28;20032;-87
2023/09/01 12:47:07;;;;;;;1.75;0.40;;;;;;;;;;5064336;28;20033;-84
2023/09/01 12:49:32;;;;;;;0.50;0.22;;;;;;;;;;5071161;28;20051;-86
2023/09/01 12:51:58;;;;;;;1.85;0.40;;;;;;;;;;5068309;28;20120;-86
2023/09/01 12:54:23;;;;;;;0.70;0.30;;;;;;;;;;5076760;28;20012;-86
2023/09/01 12:56:49;;;;;;;0.20;0.20;;;;;;;;;;5066346;28;20025;-87
2023/09/01 12:59:14;;;;;;;0.50;0.20;;;;;;;;;;5071233;28;20020;-86
2023/09/01 13:01:39;;;;;;;0.22;0.20;;;;;;;;;;5066589;28;20092;-86
2023/09/01 13:04:08;;;;;;;0.40;0.30;;;;;;;;;;5078404;28;20029;-86
2023/09/01 13:06:33;;;;;;;1.02;0.30;;;;;;;;;;5069185;28;20020;-84
2023/09/01 13:09:02;;;;;;;1.98;0.30;;;;;;;;;;5076698;28;20035;-86
2023/09/01 13:11:27;;;;;;;0.10;0.10;;;;;;;;;;5066757;28;20029;-86
2023/09/01 13:13:52;;;;;;;0.17;0.15;;;;;;;;;;5076005;28;20138;-87
2023/09/01 13:16:18;;;;;;;0.20;0.20;;;;;;;;;;5075594;28;20082;-85
2023/09/01 13:18:43;;;;;;;0.43;0.20;;;;;;;;;;5075491;28;20020;-86
2023/09/01 13:21:08;;;;;;;0.20;0.20;;;;;;;;;;5075272;28;20029;-86
2023/09/01 13:23:34;;;;;;;0.20;0.20;;;;;;;;;;5072392;28;20093;-84
2023/09/01 13:25:59;;;;;;;0.20;0.20;;;;;;;;;;5073243;28;20104;-86
2023/09/01 13:28:24;;;;;;;0.30;0.20;;;;;;;;;;5071367;28;20029;-86
2023/09/01 13:30:50;;;;;;;0.73;0.30;;;;;;;;;;5064801;28;20025;-86
2023/09/01 13:33:15;;;;;;;1.25;0.30;;;;;;;;;;5063589;28;20025;-86
2023/09/01 13:35:41;;;;;;;0.32;0.20;;;;;;;;;;5072925;28;20416;-85
2023/09/01 13:38:07;;;;;;;0.38;0.30;;;;;;;;;;5070858;28;20028;-85
2023/09/01 13:40:32;;;;;;;1.25;0.30;;;;;;;;;;5069242;28;20016;-86
2023/09/01 13:42:57;;;;;;;0.17;0.17;;;;;;;;;;5073830;28;20020;-86
2023/09/01 13:45:25;;;;;;;0.30;0.20;;;;;;;;;;5076200;28;20024;-86
2023/09/01 13:47:50;;;;;;;0.25;0.25;;;;;;;;;;5075180;28;20036;-85
2023/09/01 13:50:15;;;;;;;0.50;0.22;;;;;;;;;;5074650;28;20110;-86
2023/09/01 13:52:43;;;;;;;0.28;0.28;;;;;;;;;;5074699;28;20016;-87
2023/09/01 13:55:08;;;;;;;1.55;0.45;;;;;;;;;;5069866;28;20025;-86
2023/09/01 13:57:34;;;;;;;0.22;0.22;;;;;;;;;;5073811;28;20112;-86
2023/09/01 13:59:59;;;;;;;0.20;0.20;;;;;;;;;;5063331;28;20073;-87
2023/09/01 14:02:25;;;;;;;0.20;0.20;;;;;;;;;;5076296;28;20012;-85
2023/09/01 14:04:53;;;;;;;0.52;0.30;;;;;;;;;;5066487;28;20066;-86
2023/09/01 14:07:19;;;;;;;0.40;0.40;;;;;;;;;;5071643;28;20112;-85
2023/09/01 14:09:44;;;;;;;0.25;0.25;;;;;;;;;;5061758;28;20048;-86
2023/09/01 14:12:09;;;;;;;0.93;0.40;;;;;;;;;;5075093;28;20028;-86
2023/09/01 14:14:35;;;;;;;0.43;0.30;;;;;;;;;;5074349;28;20023;-86
2023/09/01 14:17:00;;;;;;;4.95;0.40;;;;;;;;;;5074676;28;20019;-87
2023/09/01 14:19:29;;;;;;;6.72;0.30;;;;;;;;;;5070352;28;20023;-86
2023/09/01 14:21:54;;;;;;;1.48;0.40;;;;;;;;;;5076864;28;20039;-87
2023/09/01 14:24:20;;;;;;;0.75;0.40;;;;;;;;;;5075994;28;20025;-87
2023/09/01 14:26:47;;;;;;;0.63;0.40;;;;;;;;;;5061605;28;20021;-86
2023/09/01 14:29:13;;;;;;;0.40;0.40;;;;;;;;;;5074458;28;20029;-86
2023/09/01 14:31:41;;;;;;;0.40;0.40;;;;;;;;;;5065592;28;20548;-86
2023/09/01 14:34:07;;;;;;;0.52;0.40;;;;;;;;;;5073786;28;20132;-86
2023/09/01 14:36:32;;;;;;;0.40;0.40;;;;;;;;;;5073404;28;20056;-86
2023/09/01 14:39:00;;;;;;;2.05;0.40;;;;;;;;;;5070512;28;20017;-86
2023/09/01 14:41:26;;;;;;;3.20;0.35;;;;;;;;;;5066535;28;20069;-82